createdAt,value
2017-11-03T00:01:07.201Z,0
2017-11-03T00:02:16.414Z,0
2017-11-03T00:03:24.958Z,0
2017-11-03T00:04:33.495Z,0
2017-11-03T00:05:42.713Z,0
2017-11-03T00:06:51.938Z,0
2017-11-03T00:08:01.156Z,0
2017-11-03T00:09:10.399Z,0
2017-11-03T00:10:18.941Z,0
2017-11-03T00:11:27.820Z,0
2017-11-03T00:12:36.698Z,0
2017-11-03T00:13:45.235Z,0
2017-11-03T00:14:53.778Z,0
2017-11-03T00:16:02.658Z,0
2017-11-03T00:17:11.534Z,0
2017-11-03T00:18:20.746Z,0
2017-11-03T00:19:29.287Z,0
2017-11-03T00:20:37.833Z,0
2017-11-03T00:21:47.058Z,0
2017-11-03T00:22:56.613Z,0
2017-11-03T00:24:05.203Z,0
2017-11-03T00:25:14.425Z,0
2017-11-03T00:26:22.974Z,0
2017-11-03T00:27:32.182Z,0
2017-11-03T00:28:41.731Z,0
2017-11-03T00:29:50.622Z,0
2017-11-03T00:30:59.494Z,0
2017-11-03T00:32:08.706Z,0
2017-11-03T00:33:19.036Z,0
2017-11-03T00:34:27.579Z,0
2017-11-03T00:35:36.124Z,0
2017-11-03T00:36:45.338Z,0
2017-11-03T00:37:54.220Z,0
2017-11-03T00:39:02.767Z,0
2017-11-03T00:40:11.300Z,0
2017-11-03T00:41:20.181Z,0
2017-11-03T00:42:29.057Z,0
2017-11-03T00:43:37.937Z,0
2017-11-03T00:44:46.816Z,0
2017-11-03T00:45:56.032Z,0
2017-11-03T00:47:04.572Z,0
2017-11-03T00:48:13.450Z,0
2017-11-03T00:49:22.665Z,0
2017-11-03T00:50:31.207Z,0
2017-11-03T00:51:39.749Z,0
2017-11-03T00:52:48.967Z,0
2017-11-03T00:54:00.877Z,0
2017-11-03T00:55:09.756Z,0
2017-11-03T00:56:19.308Z,0
2017-11-03T00:57:28.192Z,0
2017-11-03T00:58:37.070Z,0
2017-11-03T00:59:46.287Z,0
2017-11-03T01:00:55.503Z,0
2017-11-03T01:02:04.381Z,0
2017-11-03T01:03:13.594Z,0
2017-11-03T01:04:22.529Z,0
2017-11-03T01:05:31.069Z,0
2017-11-03T01:06:39.615Z,0
2017-11-03T01:07:48.155Z,0
2017-11-03T01:08:57.036Z,0
2017-11-03T01:10:05.578Z,0
2017-11-03T01:11:14.457Z,0
2017-11-03T01:12:23.339Z,0
2017-11-03T01:13:32.548Z,0
2017-11-03T01:14:41.092Z,0
2017-11-03T01:15:49.966Z,0
2017-11-03T01:16:59.518Z,0
2017-11-03T01:18:08.728Z,0
2017-11-03T01:19:17.314Z,0
2017-11-03T01:20:25.853Z,0
2017-11-03T01:21:34.733Z,0
2017-11-03T01:22:43.950Z,0
2017-11-03T01:23:53.164Z,0
2017-11-03T01:25:01.705Z,0
2017-11-03T01:26:10.584Z,0
2017-11-03T01:27:19.461Z,0
2017-11-03T01:28:28.004Z,0
2017-11-03T01:29:36.880Z,0
2017-11-03T01:30:45.758Z,0
2017-11-03T01:31:54.635Z,0
2017-11-03T01:33:03.175Z,0
2017-11-03T01:34:12.050Z,0
2017-11-03T01:35:20.924Z,0
2017-11-03T01:36:29.801Z,0
2017-11-03T01:37:38.340Z,0
2017-11-03T01:38:46.883Z,0
2017-11-03T01:39:55.758Z,0
2017-11-03T01:41:04.636Z,0
2017-11-03T01:42:13.176Z,0
2017-11-03T01:43:21.716Z,0
2017-11-03T01:44:30.260Z,0
2017-11-03T01:45:39.471Z,0
2017-11-03T01:46:48.011Z,0
2017-11-03T01:47:56.889Z,0
2017-11-03T01:49:05.432Z,0
2017-11-03T01:50:13.973Z,0
2017-11-03T01:51:22.857Z,0
2017-11-03T01:52:32.074Z,0
2017-11-03T01:53:40.953Z,0
2017-11-03T01:54:49.882Z,0
2017-11-03T01:55:59.096Z,0
2017-11-03T01:57:08.038Z,0
2017-11-03T01:58:17.252Z,0
2017-11-03T01:59:25.789Z,0
2017-11-03T02:00:34.670Z,0
2017-11-03T02:01:43.548Z,0
2017-11-03T02:02:52.088Z,0
2017-11-03T02:04:01.643Z,0
2017-11-03T02:05:10.518Z,0
2017-11-03T02:06:20.064Z,0
2017-11-03T02:07:29.278Z,0
2017-11-03T02:08:38.164Z,0
2017-11-03T02:09:46.706Z,0
2017-11-03T02:10:55.250Z,0
2017-11-03T02:12:04.127Z,0
2017-11-03T02:13:13.005Z,0
2017-11-03T02:14:21.897Z,0
2017-11-03T02:15:30.775Z,0
2017-11-03T02:16:39.990Z,0
2017-11-03T02:17:48.867Z,0
2017-11-03T02:18:57.406Z,0
2017-11-03T02:20:06.280Z,0
2017-11-03T02:21:14.823Z,0
2017-11-03T02:22:24.038Z,0
2017-11-03T02:23:32.913Z,0
2017-11-03T02:24:42.125Z,0
2017-11-03T02:25:51.006Z,0
2017-11-03T02:27:00.221Z,0
2017-11-03T02:28:08.761Z,0
2017-11-03T02:29:17.640Z,0
2017-11-03T02:30:26.537Z,0
2017-11-03T02:31:35.077Z,0
2017-11-03T02:32:44.288Z,0
2017-11-03T02:33:53.165Z,0
2017-11-03T02:35:02.720Z,0
2017-11-03T02:36:11.594Z,0
2017-11-03T02:37:20.470Z,0
2017-11-03T02:38:29.685Z,0
2017-11-03T02:39:38.560Z,0
2017-11-03T02:40:47.487Z,0
2017-11-03T02:41:56.026Z,0
2017-11-03T02:43:04.901Z,0
2017-11-03T02:44:13.775Z,0
2017-11-03T02:45:22.653Z,0
2017-11-03T02:46:31.529Z,0
2017-11-03T02:47:40.069Z,0
2017-11-03T02:48:48.953Z,0
2017-11-03T02:49:57.492Z,0
2017-11-03T02:51:06.380Z,0
2017-11-03T02:52:14.921Z,0
2017-11-03T02:53:23.795Z,0
2017-11-03T02:54:32.675Z,0
2017-11-03T02:55:41.550Z,0
2017-11-03T02:56:50.430Z,0
2017-11-03T02:57:59.360Z,0
2017-11-03T02:59:07.896Z,0
2017-11-03T03:00:16.439Z,0
2017-11-03T03:01:25.313Z,0
2017-11-03T03:02:34.536Z,0
2017-11-03T03:03:43.079Z,0
2017-11-03T03:04:52.007Z,0
2017-11-03T03:06:00.885Z,0
2017-11-03T03:07:09.767Z,0
2017-11-03T03:08:18.983Z,0
2017-11-03T03:09:27.542Z,0
2017-11-03T03:10:36.065Z,0
2017-11-03T03:11:45.276Z,0
2017-11-03T03:12:54.152Z,0
2017-11-03T03:14:03.365Z,0
2017-11-03T03:15:12.585Z,0
2017-11-03T03:16:21.461Z,0
2017-11-03T03:17:30.004Z,0
2017-11-03T03:18:39.269Z,0
2017-11-03T03:19:48.480Z,0
2017-11-03T03:20:57.698Z,0
2017-11-03T03:22:06.913Z,0
2017-11-03T03:23:15.799Z,0
2017-11-03T03:24:24.330Z,0
2017-11-03T03:25:33.559Z,0
2017-11-03T03:26:42.097Z,0
2017-11-03T03:27:50.976Z,0
2017-11-03T03:28:59.516Z,0
2017-11-03T03:30:08.055Z,0
2017-11-03T03:31:17.272Z,0
2017-11-03T03:32:25.814Z,0
2017-11-03T03:33:35.030Z,0
2017-11-03T03:34:43.907Z,0
2017-11-03T03:35:53.123Z,0
2017-11-03T03:37:01.665Z,0
2017-11-03T03:38:10.876Z,0
2017-11-03T03:39:19.760Z,0
2017-11-03T03:40:28.980Z,0
2017-11-03T03:41:37.855Z,0
2017-11-03T03:42:46.397Z,0
2017-11-03T03:43:54.938Z,0
2017-11-03T03:45:04.149Z,0
2017-11-03T03:46:12.688Z,0
2017-11-03T03:47:21.229Z,0
2017-11-03T03:48:30.104Z,0
2017-11-03T03:49:39.650Z,0
2017-11-03T03:50:48.866Z,0
2017-11-03T03:51:57.745Z,0
2017-11-03T03:53:06.957Z,0
2017-11-03T03:54:15.831Z,0
2017-11-03T03:55:24.377Z,0
2017-11-03T03:56:32.909Z,0
2017-11-03T03:57:41.789Z,0
2017-11-03T03:58:50.666Z,0
2017-11-03T03:59:59.544Z,0
2017-11-03T04:01:08.087Z,0
2017-11-03T04:02:16.966Z,0
2017-11-03T04:03:26.181Z,0
2017-11-03T04:04:35.061Z,0
2017-11-03T04:05:44.274Z,0
2017-11-03T04:06:53.489Z,0
2017-11-03T04:08:02.367Z,0
2017-11-03T04:09:11.578Z,0
2017-11-03T04:10:20.447Z,0
2017-11-03T04:11:28.987Z,0
2017-11-03T04:12:37.527Z,0
2017-11-03T04:13:46.745Z,0
2017-11-03T04:14:55.623Z,0
2017-11-03T04:16:04.509Z,0
2017-11-03T04:17:13.054Z,0
2017-11-03T04:18:21.930Z,0
2017-11-03T04:19:30.467Z,0
2017-11-03T04:20:39.342Z,0
2017-11-03T04:21:48.223Z,0
2017-11-03T04:22:56.765Z,0
2017-11-03T04:24:05.986Z,0
2017-11-03T04:25:14.866Z,0
2017-11-03T04:26:23.740Z,0
2017-11-03T04:27:32.615Z,0
2017-11-03T04:28:41.158Z,0
2017-11-03T04:29:50.034Z,0
2017-11-03T04:30:58.620Z,0
2017-11-03T04:32:07.159Z,0
2017-11-03T04:33:16.370Z,0
2017-11-03T04:34:25.586Z,0
2017-11-03T04:35:34.470Z,0
2017-11-03T04:36:43.352Z,0
2017-11-03T04:37:52.915Z,0
2017-11-03T04:39:01.454Z,0
2017-11-03T04:40:10.336Z,0
2017-11-03T04:41:19.219Z,0
2017-11-03T04:42:28.100Z,0
2017-11-03T04:43:36.983Z,0
2017-11-03T04:44:46.197Z,0
2017-11-03T04:45:55.077Z,0
2017-11-03T04:47:03.954Z,0
2017-11-03T04:48:13.172Z,0
2017-11-03T04:49:22.385Z,0
2017-11-03T04:50:30.926Z,0
2017-11-03T04:51:39.802Z,0
2017-11-03T04:52:48.675Z,0
2017-11-03T04:53:57.218Z,0
2017-11-03T04:55:05.759Z,0
2017-11-03T04:56:14.635Z,0
2017-11-03T04:57:23.510Z,0
2017-11-03T04:58:32.388Z,0
2017-11-03T04:59:42.272Z,0
2017-11-03T05:00:51.145Z,0
2017-11-03T05:01:59.688Z,0
2017-11-03T05:03:08.564Z,0
2017-11-03T05:04:17.107Z,0
2017-11-03T05:05:25.654Z,0
2017-11-03T05:06:34.195Z,0
2017-11-03T05:07:42.756Z,0
2017-11-03T05:08:51.274Z,0
2017-11-03T05:09:59.813Z,0
2017-11-03T05:11:08.686Z,0
2017-11-03T05:12:17.225Z,0
2017-11-03T05:13:26.101Z,0
2017-11-03T05:14:34.983Z,0
2017-11-03T05:15:44.229Z,0
2017-11-03T05:16:53.104Z,0
2017-11-03T05:18:01.703Z,0
2017-11-03T05:19:10.238Z,0
2017-11-03T05:20:19.448Z,0
2017-11-03T05:21:27.990Z,0
2017-11-03T05:22:36.546Z,0
2017-11-03T05:23:45.446Z,0
2017-11-03T05:24:54.352Z,0
2017-11-03T05:26:03.565Z,0
2017-11-03T05:27:12.458Z,0
2017-11-03T05:28:21.046Z,0
2017-11-03T05:29:29.691Z,0
2017-11-03T05:30:38.903Z,0
2017-11-03T05:31:47.856Z,0
2017-11-03T05:32:57.071Z,0
2017-11-03T05:34:05.945Z,0
2017-11-03T05:35:15.498Z,0
2017-11-03T05:36:24.044Z,0
2017-11-03T05:37:32.917Z,0
2017-11-03T05:38:42.129Z,0
2017-11-03T05:39:51.338Z,0
2017-11-03T05:41:00.552Z,0
2017-11-03T05:42:09.433Z,0
2017-11-03T05:43:18.306Z,0
2017-11-03T05:44:26.844Z,0
2017-11-03T05:45:35.387Z,0
2017-11-03T05:46:43.994Z,0
2017-11-03T05:47:52.915Z,0
2017-11-03T05:49:01.489Z,0
2017-11-03T05:50:10.025Z,0
2017-11-03T05:51:18.992Z,0
2017-11-03T05:52:27.895Z,0
2017-11-03T05:53:36.777Z,0
2017-11-03T05:54:45.358Z,0
2017-11-03T05:55:53.914Z,0
2017-11-03T05:57:02.872Z,0
2017-11-03T05:58:11.823Z,0
2017-11-03T05:59:20.458Z,0
2017-11-03T06:00:29.060Z,0
2017-11-03T06:01:37.835Z,0
2017-11-03T06:02:46.438Z,0
2017-11-03T06:03:56.071Z,0
2017-11-03T06:05:04.949Z,0
2017-11-03T06:06:13.492Z,0
2017-11-03T06:07:22.134Z,0
2017-11-03T06:08:30.671Z,0
2017-11-03T06:09:39.900Z,0
2017-11-03T06:10:48.767Z,0
2017-11-03T06:11:57.983Z,0
2017-11-03T06:13:06.860Z,0
2017-11-03T06:14:15.734Z,0
2017-11-03T06:15:24.947Z,0
2017-11-03T06:16:33.489Z,0
2017-11-03T06:17:42.362Z,0
2017-11-03T06:18:50.900Z,0
2017-11-03T06:19:59.463Z,0
2017-11-03T06:21:08.003Z,0
2017-11-03T06:22:16.883Z,0
2017-11-03T06:23:25.755Z,0
2017-11-03T06:24:34.633Z,0
2017-11-03T06:25:43.851Z,0
2017-11-03T06:26:52.726Z,0
2017-11-03T06:28:01.599Z,0
2017-11-03T06:29:10.861Z,0
2017-11-03T06:30:20.075Z,0
2017-11-03T06:31:28.952Z,0
2017-11-03T06:32:37.830Z,0
2017-11-03T06:33:46.800Z,0
2017-11-03T06:34:55.676Z,0
2017-11-03T06:36:04.888Z,0
2017-11-03T06:37:13.428Z,5
2017-11-03T06:38:22.643Z,0
2017-11-03T06:39:31.520Z,5
2017-11-03T06:40:40.784Z,5
2017-11-03T06:41:49.664Z,5
2017-11-03T06:42:58.867Z,5
2017-11-03T06:44:07.404Z,5
2017-11-03T06:45:16.278Z,5
2017-11-03T06:46:24.816Z,5
2017-11-03T06:47:34.058Z,5
2017-11-03T06:48:42.940Z,5
2017-11-03T06:49:52.154Z,5
2017-11-03T06:51:00.691Z,10
2017-11-03T06:52:09.910Z,10
2017-11-03T06:53:18.452Z,10
2017-11-03T06:54:26.990Z,5
2017-11-03T06:55:35.531Z,10
2017-11-03T06:56:44.411Z,10
2017-11-03T06:57:53.626Z,10
2017-11-03T06:59:02.505Z,15
2017-11-03T07:00:11.380Z,10
2017-11-03T07:01:20.256Z,10
2017-11-03T07:02:28.798Z,15
2017-11-03T07:03:37.684Z,15
2017-11-03T07:04:47.238Z,15
2017-11-03T07:05:55.769Z,15
2017-11-03T07:06:28.116Z,10
2017-11-03T07:07:37.332Z,10
2017-11-03T07:08:46.208Z,10
2017-11-03T07:09:55.092Z,10
2017-11-03T07:11:04.303Z,10
2017-11-03T07:12:12.840Z,10
2017-11-03T07:13:21.385Z,10
2017-11-03T07:14:30.265Z,5
2017-11-03T07:15:39.142Z,10
2017-11-03T07:16:48.359Z,10
2017-11-03T07:17:57.235Z,10
2017-11-03T07:19:06.124Z,10
2017-11-03T07:20:15.340Z,10
2017-11-03T07:21:23.884Z,10
2017-11-03T07:22:32.768Z,15
2017-11-03T07:23:41.324Z,15
2017-11-03T07:24:49.868Z,15
2017-11-03T07:25:58.749Z,15
2017-11-03T07:27:07.630Z,15
2017-11-03T07:28:16.499Z,10
2017-11-03T07:29:25.386Z,10
2017-11-03T07:30:33.930Z,10
2017-11-03T07:31:43.201Z,15
2017-11-03T07:32:51.885Z,10
2017-11-03T07:34:00.429Z,10
2017-11-03T07:35:09.387Z,15
2017-11-03T07:36:18.317Z,15
2017-11-03T07:37:26.885Z,20
2017-11-03T07:38:35.758Z,15
2017-11-03T07:39:44.639Z,15
2017-11-03T07:40:53.185Z,20
2017-11-03T07:42:02.145Z,15
2017-11-03T07:43:11.725Z,20
2017-11-03T07:44:20.281Z,20
2017-11-03T07:45:29.157Z,15
2017-11-03T07:46:38.030Z,20
2017-11-03T07:47:46.573Z,20
2017-11-03T07:48:55.365Z,20
2017-11-03T07:50:04.260Z,15
2017-11-03T07:51:12.802Z,15
2017-11-03T07:52:21.343Z,15
2017-11-03T07:53:30.555Z,20
2017-11-03T07:54:39.446Z,20
2017-11-03T07:55:48.321Z,20
2017-11-03T07:56:57.534Z,20
2017-11-03T07:58:06.267Z,20
2017-11-03T07:59:15.146Z,20
2017-11-03T08:00:23.688Z,20
2017-11-03T08:01:33.679Z,25
2017-11-03T08:02:42.903Z,20
2017-11-03T08:03:51.775Z,20
2017-11-03T08:05:00.706Z,20
2017-11-03T08:06:09.593Z,25
2017-11-03T08:07:18.474Z,25
2017-11-03T08:08:27.687Z,20
2017-11-03T08:09:36.566Z,20
2017-11-03T08:10:45.440Z,20
2017-11-03T08:11:53.981Z,20
2017-11-03T08:13:03.194Z,25
2017-11-03T08:14:12.079Z,25
2017-11-03T08:15:20.970Z,30
2017-11-03T08:16:30.523Z,30
2017-11-03T08:17:39.062Z,30
2017-11-03T08:18:48.092Z,25
2017-11-03T08:19:56.637Z,25
2017-11-03T08:21:05.853Z,25
2017-11-03T08:22:15.078Z,25
2017-11-03T08:23:23.619Z,25
2017-11-03T08:24:33.438Z,25
2017-11-03T08:25:42.044Z,25
2017-11-03T08:26:50.986Z,35
2017-11-03T08:28:00.210Z,40
2017-11-03T08:29:09.089Z,40
2017-11-03T08:30:17.964Z,45
2017-11-03T08:31:26.843Z,45
2017-11-03T08:32:35.720Z,45
2017-11-03T08:33:45.606Z,30
2017-11-03T08:34:54.772Z,35
2017-11-03T08:36:03.318Z,35
2017-11-03T08:37:12.565Z,40
2017-11-03T08:38:21.490Z,40
2017-11-03T08:39:30.366Z,35
2017-11-03T08:40:39.242Z,30
2017-11-03T08:41:47.785Z,30
2017-11-03T08:42:56.329Z,35
2017-11-03T08:44:04.869Z,40
2017-11-03T08:45:13.411Z,40
2017-11-03T08:46:22.290Z,40
2017-11-03T08:47:31.171Z,40
2017-11-03T08:48:39.717Z,45
2017-11-03T08:49:48.929Z,40
2017-11-03T08:50:58.482Z,40
2017-11-03T08:52:07.039Z,35
2017-11-03T08:53:15.928Z,35
2017-11-03T08:54:24.482Z,35
2017-11-03T08:55:33.701Z,40
2017-11-03T08:56:42.582Z,45
2017-11-03T08:57:51.326Z,45
2017-11-03T08:59:00.541Z,50
2017-11-03T09:00:09.447Z,55
2017-11-03T09:01:18.358Z,55
2017-11-03T09:02:27.239Z,60
2017-11-03T09:03:35.873Z,55
2017-11-03T09:04:46.305Z,45
2017-11-03T09:05:55.341Z,55
2017-11-03T09:07:04.594Z,55
2017-11-03T09:08:13.833Z,55
2017-11-03T09:09:22.381Z,55
2017-11-03T09:10:30.956Z,60
2017-11-03T09:11:39.500Z,60
2017-11-03T09:12:48.041Z,65
2017-11-03T09:13:57.299Z,70
2017-11-03T09:15:06.219Z,75
2017-11-03T09:16:15.441Z,80
2017-11-03T09:17:24.575Z,80
2017-11-03T09:18:33.681Z,80
2017-11-03T09:19:43.268Z,80
2017-11-03T09:20:51.904Z,60
2017-11-03T09:22:00.787Z,50
2017-11-03T09:23:09.685Z,50
2017-11-03T09:24:18.232Z,55
2017-11-03T09:25:27.108Z,75
2017-11-03T09:26:36.005Z,55
2017-11-03T09:27:44.883Z,50
2017-11-03T09:28:53.763Z,65
2017-11-03T09:30:02.975Z,70
2017-11-03T09:31:11.517Z,65
2017-11-03T09:32:20.531Z,65
2017-11-03T09:33:29.146Z,70
2017-11-03T09:34:38.390Z,55
2017-11-03T09:35:47.272Z,55
2017-11-03T09:36:55.814Z,50
2017-11-03T09:38:04.700Z,65
2017-11-03T09:39:13.589Z,65
2017-11-03T09:40:22.489Z,70
2017-11-03T09:41:31.040Z,70
2017-11-03T09:42:39.578Z,65
2017-11-03T09:43:48.474Z,80
2017-11-03T09:44:57.136Z,110
2017-11-03T09:46:06.051Z,110
2017-11-03T09:47:14.940Z,115
2017-11-03T09:48:23.483Z,125
2017-11-03T09:49:32.371Z,120
2017-11-03T09:50:41.250Z,120
2017-11-03T09:51:50.130Z,95
2017-11-03T09:52:59.013Z,70
2017-11-03T09:54:07.555Z,85
2017-11-03T09:55:16.451Z,90
2017-11-03T09:56:25.329Z,85
2017-11-03T09:57:34.211Z,75
2017-11-03T09:58:43.095Z,65
2017-11-03T09:59:51.975Z,60
2017-11-03T10:01:00.514Z,55
2017-11-03T10:02:09.446Z,60
2017-11-03T10:03:18.326Z,55
2017-11-03T10:04:26.876Z,60
2017-11-03T10:05:35.753Z,60
2017-11-03T10:06:44.628Z,60
2017-11-03T10:07:53.170Z,65
2017-11-03T10:09:02.534Z,65
2017-11-03T10:10:11.756Z,65
2017-11-03T10:11:20.302Z,65
2017-11-03T10:12:29.185Z,60
2017-11-03T10:13:38.070Z,60
2017-11-03T10:14:46.950Z,60
2017-11-03T10:15:55.490Z,55
2017-11-03T10:17:04.374Z,55
2017-11-03T10:18:13.293Z,60
2017-11-03T10:19:22.178Z,70
2017-11-03T10:20:31.394Z,65
2017-11-03T10:21:40.947Z,65
2017-11-03T10:22:49.496Z,70
2017-11-03T10:23:58.720Z,85
2017-11-03T10:25:07.365Z,85
2017-11-03T10:26:15.908Z,95
2017-11-03T10:27:25.146Z,90
2017-11-03T10:28:33.686Z,100
2017-11-03T10:29:42.232Z,95
2017-11-03T10:30:51.446Z,100
2017-11-03T10:32:00.333Z,100
2017-11-03T10:33:09.215Z,105
2017-11-03T10:34:18.100Z,105
2017-11-03T10:35:26.979Z,110
2017-11-03T10:36:35.877Z,110
2017-11-03T10:37:44.756Z,105
2017-11-03T10:38:54.328Z,105
2017-11-03T10:40:02.921Z,95
2017-11-03T10:41:11.805Z,85
2017-11-03T10:42:20.346Z,80
2017-11-03T10:43:29.233Z,75
2017-11-03T10:44:38.450Z,70
2017-11-03T10:45:47.341Z,70
2017-11-03T10:46:56.569Z,70
2017-11-03T10:48:05.789Z,65
2017-11-03T10:49:15.006Z,70
2017-11-03T10:50:23.634Z,65
2017-11-03T10:51:32.868Z,70
2017-11-03T10:52:42.104Z,70
2017-11-03T10:53:51.049Z,70
2017-11-03T10:54:59.932Z,95
2017-11-03T10:56:09.510Z,90
2017-11-03T10:57:19.144Z,100
2017-11-03T10:58:27.689Z,110
2017-11-03T10:59:36.232Z,115
2017-11-03T11:00:45.446Z,110
2017-11-03T11:01:53.992Z,115
2017-11-03T11:03:02.533Z,120
2017-11-03T11:04:11.079Z,120
2017-11-03T11:05:19.623Z,120
2017-11-03T11:06:28.509Z,115
2017-11-03T11:07:37.723Z,115
2017-11-03T11:08:46.943Z,110
2017-11-03T11:09:55.819Z,100
2017-11-03T11:11:04.358Z,100
2017-11-03T11:12:12.904Z,105
2017-11-03T11:13:21.807Z,105
2017-11-03T11:14:30.697Z,100
2017-11-03T11:15:39.911Z,105
2017-11-03T11:16:48.790Z,105
2017-11-03T11:17:57.339Z,100
2017-11-03T11:19:06.231Z,100
2017-11-03T11:20:15.118Z,100
2017-11-03T11:21:24.005Z,110
2017-11-03T11:22:33.219Z,110
2017-11-03T11:23:42.101Z,110
2017-11-03T11:24:50.987Z,115
2017-11-03T11:26:00.205Z,115
2017-11-03T11:27:08.748Z,115
2017-11-03T11:28:17.628Z,115
2017-11-03T11:29:26.177Z,115
2017-11-03T11:30:35.401Z,110
2017-11-03T11:31:43.946Z,110
2017-11-03T11:32:52.825Z,110
2017-11-03T11:34:01.368Z,110
2017-11-03T11:35:09.912Z,110
2017-11-03T11:36:18.454Z,110
2017-11-03T11:37:27.668Z,110
2017-11-03T11:38:36.547Z,110
2017-11-03T11:39:45.096Z,110
2017-11-03T11:40:54.312Z,105
2017-11-03T11:42:02.855Z,105
2017-11-03T11:43:11.734Z,105
2017-11-03T11:44:20.632Z,105
2017-11-03T11:45:30.201Z,105
2017-11-03T11:46:38.742Z,105
2017-11-03T11:47:47.286Z,105
2017-11-03T11:48:56.166Z,105
2017-11-03T11:50:04.712Z,105
2017-11-03T11:51:13.257Z,105
2017-11-03T11:52:21.802Z,105
2017-11-03T11:53:30.356Z,105
2017-11-03T11:54:39.295Z,105
2017-11-03T11:55:48.516Z,105
2017-11-03T11:56:57.401Z,105
2017-11-03T11:58:07.306Z,105
2017-11-03T11:59:16.185Z,105
2017-11-03T12:00:25.064Z,105
2017-11-03T12:01:33.943Z,105
2017-11-03T12:02:42.821Z,105
2017-11-03T12:03:51.698Z,105
2017-11-03T12:05:00.926Z,105
2017-11-03T12:06:09.810Z,100
2017-11-03T12:07:18.683Z,105
2017-11-03T12:08:27.239Z,100
2017-11-03T12:09:36.441Z,100
2017-11-03T12:10:45.318Z,100
2017-11-03T12:11:54.209Z,100
2017-11-03T12:13:03.090Z,100
2017-11-03T12:14:11.629Z,100
2017-11-03T12:15:20.511Z,100
2017-11-03T12:16:29.737Z,100
2017-11-03T12:17:38.953Z,100
2017-11-03T12:18:48.343Z,100
2017-11-03T12:19:57.892Z,100
2017-11-03T12:21:06.772Z,100
2017-11-03T12:22:15.651Z,100
2017-11-03T12:23:24.996Z,95
2017-11-03T12:24:34.105Z,95
2017-11-03T12:25:42.986Z,95
2017-11-03T12:26:51.866Z,95
2017-11-03T12:28:00.751Z,95
2017-11-03T12:29:09.969Z,95
2017-11-03T12:30:18.850Z,95
2017-11-03T12:31:27.736Z,95
2017-11-03T12:32:36.281Z,95
2017-11-03T12:33:45.158Z,95
2017-11-03T12:34:54.038Z,95
2017-11-03T12:36:04.066Z,95
2017-11-03T12:37:13.662Z,95
2017-11-03T12:38:22.547Z,95
2017-11-03T12:39:31.426Z,95
2017-11-03T12:40:40.309Z,95
2017-11-03T12:41:48.878Z,95
2017-11-03T12:42:57.398Z,95
2017-11-03T12:44:05.945Z,95
2017-11-03T12:45:14.822Z,95
2017-11-03T12:46:23.370Z,95
2017-11-03T12:47:32.256Z,95
2017-11-03T12:48:41.805Z,95
2017-11-03T12:49:50.691Z,95
2017-11-03T12:50:59.576Z,95
2017-11-03T12:52:08.798Z,90
2017-11-03T12:53:17.351Z,90
2017-11-03T12:54:26.242Z,90
2017-11-03T12:55:34.790Z,90
2017-11-03T12:56:43.679Z,85
2017-11-03T12:57:52.237Z,80
2017-11-03T12:59:01.166Z,80
2017-11-03T13:00:10.384Z,80
2017-11-03T13:01:18.934Z,85
2017-11-03T13:02:27.485Z,80
2017-11-03T13:03:36.367Z,80
2017-11-03T13:04:45.255Z,80
2017-11-03T13:05:54.483Z,80
2017-11-03T13:07:03.026Z,75
2017-11-03T13:08:11.906Z,75
2017-11-03T13:09:20.786Z,80
2017-11-03T13:10:29.331Z,80
2017-11-03T13:11:38.549Z,75
2017-11-03T13:12:47.097Z,75
2017-11-03T13:13:55.979Z,75
2017-11-03T13:15:04.871Z,75
2017-11-03T13:16:13.753Z,75
2017-11-03T13:17:22.631Z,75
2017-11-03T13:18:31.548Z,75
2017-11-03T13:19:40.093Z,75
2017-11-03T13:20:48.640Z,70
2017-11-03T13:21:57.918Z,75
2017-11-03T13:23:06.481Z,70
2017-11-03T13:24:15.362Z,70
2017-11-03T13:25:23.909Z,65
2017-11-03T13:26:32.454Z,70
2017-11-03T13:27:41.334Z,70
2017-11-03T13:28:49.887Z,65
2017-11-03T13:29:59.996Z,65
2017-11-03T13:31:09.232Z,65
2017-11-03T13:32:18.118Z,70
2017-11-03T13:33:27.154Z,65
2017-11-03T13:34:36.061Z,65
2017-11-03T13:35:44.609Z,70
2017-11-03T13:36:53.492Z,70
2017-11-03T13:38:02.383Z,70
2017-11-03T13:39:11.272Z,70
2017-11-03T13:40:20.838Z,70
2017-11-03T13:41:29.726Z,65
2017-11-03T13:42:38.667Z,65
2017-11-03T13:43:47.240Z,65
2017-11-03T13:44:56.278Z,60
2017-11-03T13:46:05.619Z,60
2017-11-03T13:47:14.168Z,55
2017-11-03T13:48:23.724Z,55
2017-11-03T13:49:32.267Z,50
2017-11-03T13:50:41.744Z,50
2017-11-03T13:51:50.476Z,50
2017-11-03T13:53:00.369Z,50
2017-11-03T13:54:09.256Z,50
2017-11-03T13:55:18.148Z,50
2017-11-03T13:56:27.048Z,50
2017-11-03T13:57:35.590Z,50
2017-11-03T13:58:44.435Z,50
2017-11-03T13:59:52.990Z,45
2017-11-03T14:01:01.887Z,45
2017-11-03T14:02:11.102Z,50
2017-11-03T14:03:19.650Z,45
2017-11-03T14:04:28.192Z,45
2017-11-03T14:05:37.861Z,45
2017-11-03T14:06:46.742Z,45
2017-11-03T14:07:55.624Z,45
2017-11-03T14:09:04.504Z,45
2017-11-03T14:10:13.047Z,45
2017-11-03T14:11:21.927Z,45
2017-11-03T14:12:31.636Z,45
2017-11-03T14:13:40.183Z,45
2017-11-03T14:14:49.076Z,45
2017-11-03T14:15:57.633Z,45
2017-11-03T14:17:06.511Z,50
2017-11-03T14:18:15.063Z,45
2017-11-03T14:19:23.942Z,45
2017-11-03T14:20:32.831Z,45
2017-11-03T14:21:41.627Z,45
2017-11-03T14:22:50.580Z,45
2017-11-03T14:23:59.718Z,45
2017-11-03T14:25:08.798Z,45
2017-11-03T14:26:17.667Z,45
2017-11-03T14:27:26.459Z,45
2017-11-03T14:28:35.717Z,45
2017-11-03T14:29:44.260Z,45
2017-11-03T14:30:52.806Z,45
2017-11-03T14:32:02.016Z,45
2017-11-03T14:33:10.568Z,50
2017-11-03T14:34:19.473Z,50
2017-11-03T14:35:28.690Z,45
2017-11-03T14:36:37.233Z,45
2017-11-03T14:37:45.780Z,40
2017-11-03T14:38:54.333Z,40
2017-11-03T14:40:03.885Z,40
2017-11-03T14:41:13.102Z,40
2017-11-03T14:42:21.996Z,40
2017-11-03T14:43:31.245Z,40
2017-11-03T14:44:40.466Z,40
2017-11-03T14:45:49.012Z,40
2017-11-03T14:46:57.897Z,40
2017-11-03T14:48:06.438Z,40
2017-11-03T14:49:15.314Z,35
2017-11-03T14:50:24.195Z,35
2017-11-03T14:51:32.739Z,35
2017-11-03T14:52:42.114Z,35
2017-11-03T14:53:51.011Z,35
2017-11-03T14:54:59.897Z,35
2017-11-03T14:56:08.436Z,35
2017-11-03T14:57:16.979Z,35
2017-11-03T14:58:25.526Z,30
2017-11-03T14:59:34.068Z,30
2017-11-03T15:00:42.661Z,30
2017-11-03T15:01:51.200Z,30
2017-11-03T15:02:59.746Z,30
2017-11-03T15:04:08.628Z,30
2017-11-03T15:05:17.844Z,30
2017-11-03T15:06:27.066Z,30
2017-11-03T15:07:35.607Z,30
2017-11-03T15:08:44.485Z,30
2017-11-03T15:09:53.365Z,30
2017-11-03T15:11:02.250Z,25
2017-11-03T15:12:11.486Z,25
2017-11-03T15:13:20.095Z,25
2017-11-03T15:14:28.979Z,25
2017-11-03T15:15:38.195Z,25
2017-11-03T15:16:46.749Z,25
2017-11-03T15:17:55.295Z,25
2017-11-03T15:19:04.855Z,20
2017-11-03T15:20:13.738Z,20
2017-11-03T15:21:22.622Z,20
2017-11-03T15:22:31.168Z,20
2017-11-03T15:23:39.720Z,20
2017-11-03T15:24:48.940Z,20
2017-11-03T15:25:58.167Z,20
2017-11-03T15:27:07.042Z,15
2017-11-03T15:28:15.588Z,15
2017-11-03T15:29:25.148Z,15
2017-11-03T15:30:34.054Z,15
2017-11-03T15:31:43.005Z,15
2017-11-03T15:32:51.895Z,15
2017-11-03T15:34:00.439Z,15
2017-11-03T15:35:09.321Z,15
2017-11-03T15:36:18.208Z,15
2017-11-03T15:37:27.495Z,10
2017-11-03T15:38:36.040Z,10
2017-11-03T15:39:45.252Z,10
2017-11-03T15:40:54.159Z,10
2017-11-03T15:42:02.753Z,10
2017-11-03T15:43:11.631Z,10
2017-11-03T15:44:20.176Z,10
2017-11-03T15:45:29.056Z,10
2017-11-03T15:46:37.939Z,10
2017-11-03T15:47:47.082Z,5
2017-11-03T15:48:55.993Z,5
2017-11-03T15:50:04.875Z,5
2017-11-03T15:51:13.418Z,5
2017-11-03T15:52:22.344Z,5
2017-11-03T15:53:30.889Z,5
2017-11-03T15:54:39.857Z,5
2017-11-03T15:55:48.735Z,5
2017-11-03T15:56:57.655Z,5
2017-11-03T15:58:06.876Z,0
2017-11-03T15:59:15.782Z,0
2017-11-03T16:00:24.708Z,0
2017-11-03T16:01:33.637Z,0
2017-11-03T16:02:42.863Z,0
2017-11-03T16:03:51.731Z,0
2017-11-03T16:05:00.624Z,0
2017-11-03T16:06:09.505Z,0
2017-11-03T16:07:18.722Z,0
2017-11-03T16:08:27.605Z,0
2017-11-03T16:09:36.154Z,0
2017-11-03T16:10:45.706Z,0
2017-11-03T16:11:54.590Z,0
2017-11-03T16:13:03.142Z,0
2017-11-03T16:14:12.385Z,0
2017-11-03T16:15:21.263Z,0
2017-11-03T16:16:30.146Z,0
2017-11-03T16:17:39.025Z,0
2017-11-03T16:18:48.267Z,0
2017-11-03T16:19:57.150Z,0
2017-11-03T16:21:06.035Z,0
2017-11-03T16:22:14.912Z,0
2017-11-03T16:23:23.455Z,0
2017-11-03T16:24:32.337Z,0
2017-11-03T16:25:41.222Z,0
2017-11-03T16:26:50.099Z,0
2017-11-03T16:27:58.983Z,0
2017-11-03T16:29:07.522Z,0
2017-11-03T16:30:16.400Z,0
2017-11-03T16:31:25.618Z,0
2017-11-03T16:32:34.488Z,0
2017-11-03T16:33:43.704Z,0
2017-11-03T16:34:52.920Z,0